Time;durP1;ratioP1;P1;durP2;ratioP2;P2;SDS_P1;SDS_P2;PMS_P1;PMS_P2;Temp;Humidity;BMP_temperature;BMP_pressure;BME280_temperature;BME280_humidity;BME280_pressure;Samples;Min_cycle;Max_cycle;Signal;HPM_P1;HPM_P2
2022/05/22 00:00:47;;;;;;;;;;;;;;;11.41;57.02;97865.38;4998878;28;20044;-77
2022/05/22 00:03:13;;;;;;;4.50;3.22;;;;;;;11.36;56.66;97862.94;5031308;28;19986;-77
2022/05/22 00:05:39;;;;;;;;;;;;;;;11.40;56.96;97863.66;5031579;28;20029;-78
2022/05/22 00:08:07;;;;;;;8.30;3.47;;;;;;;11.33;56.10;97860.44;5022122;28;19921;-76
2022/05/22 00:10:32;;;;;;;;;;;;;;;11.34;55.80;97858.69;5028524;28;20515;-77
2022/05/22 00:12:58;;;;;;;6.28;3.00;;;;;;;11.24;55.87;97853.00;5032678;28;20429;-77
2022/05/22 00:15:23;;;;;;;;;;;;;;;11.30;56.90;97854.50;5031511;28;20492;-76
2022/05/22 00:17:49;;;;;;;4.70;3.22;;;;;;;11.20;56.37;97849.66;5033759;28;19917;-76
2022/05/22 00:20:15;;;;;;;;;;;;;;;11.26;56.34;97853.78;5032739;28;20098;-77
2022/05/22 00:22:41;;;;;;;5.07;2.80;;;;;;;11.22;56.00;97852.19;5047569;28;19920;-78
2022/05/22 00:25:10;;;;;;;;;;;;;;;11.27;56.56;97844.22;5031512;28;20045;-77
2022/05/22 00:27:36;;;;;;;5.05;3.20;;;;;;;11.18;55.52;97842.84;5031108;28;20384;-77
2022/05/22 00:30:02;;;;;;;5.25;2.70;;;;;;;11.11;55.75;97839.59;5030988;28;20069;-77
2022/05/22 00:32:28;;;;;;;;;;;;;;;11.19;55.84;97842.78;5014730;28;20119;-76
2022/05/22 00:34:53;;;;;;;5.75;2.75;;;;;;;11.12;54.87;97836.09;5030889;28;19913;-77
2022/05/22 00:37:20;;;;;;;7.75;3.00;;;;;;;11.14;54.31;97833.47;5014151;28;20042;-78
2022/05/22 00:39:46;;;;;;;6.80;3.15;;;;;;;11.16;54.63;97842.88;5030568;28;20136;-78
2022/05/22 00:42:12;;;;;;;;;;;;;;;11.24;54.74;97833.97;5031282;28;20084;-77
2022/05/22 00:44:38;;;;;;;9.30;2.80;;;;;;;11.16;54.07;97827.31;5026841;28;19956;-77
2022/05/22 00:47:04;;;;;;;;;;;;;;;11.23;54.25;97821.91;4996835;28;20135;-77
2022/05/22 00:49:33;;;;;;;6.10;2.92;;;;;;;11.21;53.92;97819.34;5031788;28;19963;-77
2022/05/22 00:52:22;;;;;;;8.85;3.10;;;;;;;11.19;54.05;97827.19;5014358;28;20507;-78
2022/05/22 00:55:06;;;;;;;6.07;2.95;;;;;;;11.20;53.45;97818.50;5011174;28;20420;-77
2022/05/22 00:57:32;;;;;;;8.65;2.90;;;;;;;11.12;52.79;97807.56;5029884;28;20041;-78
2022/05/22 00:59:59;;;;;;;;;;;;;;;11.18;53.83;97811.69;5010998;28;20124;-77
2022/05/22 01:02:26;;;;;;;6.72;2.38;;;;;;;11.09;53.70;97809.44;5042842;28;19921;-78
2022/05/22 01:04:52;;;;;;;5.57;2.65;;;;;;;11.07;53.94;97806.03;5030689;28;20033;-77
2022/05/22 01:07:18;;;;;;;8.85;2.67;;;;;;;11.07;53.64;97801.69;4998285;28;20495;-77
2022/05/22 01:09:44;;;;;;;;;;;;;;;11.18;53.71;97806.50;5011306;28;20034;-76
2022/05/22 01:12:20;;;;;;;7.22;2.63;;;;;;;11.13;54.04;97806.66;5012135;28;19917;-77
2022/05/22 01:14:50;;;;;;;6.30;2.60;;;;;;;11.11;53.12;97808.47;5014352;28;20499;-77
2022/05/22 01:17:16;;;;;;;9.82;2.63;;;;;;;11.09;53.31;97809.44;5029762;28;20044;-77
2022/05/22 01:19:41;;;;;;;;;;;;;;;11.28;53.19;97814.81;5030932;28;20447;-77
2022/05/22 01:22:12;;;;;;;7.82;2.50;;;;;;;11.27;53.78;97802.69;5013448;28;19921;-77
2022/05/22 01:24:41;;;;;;;5.28;2.50;;;;;;;11.20;52.79;97791.72;5007037;28;20524;-78
2022/05/22 01:27:07;;;;;;;;;;;;;;;11.25;52.89;97804.53;5011264;28;20040;-76
2022/05/22 01:30:14;;;;;;;5.35;2.53;;;;;;;11.27;53.15;97803.56;5002467;28;20032;-76
2022/05/22 01:32:42;;;;;;;7.18;2.72;;;;;;;11.19;52.29;97805.59;5028111;28;20141;-76
2022/05/22 01:35:09;;;;;;;8.15;2.60;;;;;;;11.08;52.20;97803.38;5010771;28;20085;-76
2022/05/22 01:37:34;;;;;;;6.82;2.60;;;;;;;10.98;53.00;97796.81;5026369;28;20041;-77
2022/05/22 01:40:02;;;;;;;6.57;2.55;;;;;;;10.99;51.87;97798.50;4997554;28;20135;-77
2022/05/22 01:42:29;;;;;;;5.82;2.45;;;;;;;10.94;52.27;97790.03;5031498;28;20133;-77
2022/05/22 01:44:56;;;;;;;6.43;2.40;;;;;;;10.88;51.72;97790.28;5014207;28;20033;-77
2022/05/22 01:47:22;;;;;;;9.85;2.72;;;;;;;10.89;51.53;97786.75;5030439;28;20552;-78
2022/05/22 01:49:47;;;;;;;;;;;;;;;11.02;52.07;97788.03;4999205;28;20083;-77
2022/05/22 01:52:13;;;;;;;6.78;2.55;;;;;;;11.01;50.70;97785.50;5027057;28;19917;-77
2022/05/22 01:54:41;;;;;;;6.18;2.15;;;;;;;10.91;50.88;97790.16;5010407;28;20025;-77
2022/05/22 01:57:07;;;;;;;;;;;;;;;10.91;50.55;97793.59;5034503;28;20046;-76
2022/05/22 01:59:33;;;;;;;4.95;2.40;;;;;;;10.79;50.83;97782.81;5033569;28;19913;-78
2022/05/22 02:02:13;;;;;;;7.55;2.97;;;;;;;10.74;50.34;97785.56;5019049;28;20037;-77
2022/05/22 02:04:39;;;;;;;;;;;;;;;10.79;50.61;97790.59;5033856;28;20037;-77
2022/05/22 02:09:49;;;;;;;6.47;2.53;;;;;;;10.80;49.98;97781.91;5033111;28;20037;-77
2022/05/22 02:12:14;;;;;;;;;;;;;;;10.85;49.38;97786.03;5033861;28;20052;-77
2022/05/22 02:14:40;;;;;;;5.05;2.30;;;;;;;10.84;49.29;97788.69;5034315;28;20400;-76
2022/05/22 02:17:11;;;;;;;5.50;2.10;;;;;;;10.75;50.06;97784.66;5017713;28;20033;-77
2022/05/22 02:19:48;;;;;;;;;;;;;;;10.72;49.85;97783.91;5033781;28;20566;-78
2022/05/22 02:22:16;;;;;;;5.90;2.30;;;;;;;10.64;49.44;97787.63;5046471;28;19995;-78
2022/05/22 02:24:41;;;;;;;;;;;;;;;10.72;49.84;97784.78;5009245;28;20069;-78
2022/05/22 02:27:12;;;;;;;15.18;10.02;;;;;;;10.71;49.91;97790.00;5046805;28;19925;-77
2022/05/22 02:29:38;;;;;;;6.03;3.22;;;;;;;10.73;49.30;97790.81;5032802;28;20033;-78
2022/05/22 02:32:04;;;;;;;;;;;;;;;10.75;49.49;97792.44;5033665;28;20037;-78
2022/05/22 02:34:29;;;;;;;6.28;2.58;;;;;;;10.69;49.45;97792.66;5042961;28;19917;-77
2022/05/22 02:36:56;;;;;;;8.82;2.78;;;;;;;10.65;49.21;97797.09;5029857;28;20084;-78
2022/05/22 02:39:22;;;;;;;5.43;2.55;;;;;;;10.65;48.60;97788.47;5031758;28;20520;-77
2022/05/22 02:41:47;;;;;;;;;;;;;;;10.75;49.15;97791.59;5033599;28;20110;-78
2022/05/22 02:44:13;;;;;;;5.47;2.63;;;;;;;10.70;48.10;97791.75;5016658;28;19967;-77
2022/05/22 02:46:40;;;;;;;;;;;;;;;10.76;48.27;97793.28;5033205;28;20025;-77
2022/05/22 02:49:07;;;;;;;5.32;2.65;;;;;;;10.75;48.91;97789.00;5019051;28;19917;-77
2022/05/22 02:51:36;;;;;;;4.63;2.58;;;;;;;10.67;48.65;97797.91;5013226;28;20061;-78
2022/05/22 02:54:02;;;;;;;;;;;;;;;10.71;48.22;97800.38;5000681;28;20469;-78
2022/05/22 02:56:51;;;;;;;4.85;2.78;;;;;;;10.67;47.62;97802.22;5040390;28;19924;-78
2022/05/22 02:59:19;;;;;;;6.00;2.70;;;;;;;10.62;48.06;97799.78;5029148;28;20507;-78
2022/05/22 03:02:17;;;;;;;7.85;2.90;;;;;;;10.67;47.88;97791.84;5013399;28;20033;-78
2022/05/22 03:04:45;;;;;;;4.80;2.63;;;;;;;10.66;48.48;97792.75;4996787;28;20042;-78
2022/05/22 03:07:14;;;;;;;5.10;2.90;;;;;;;10.63;47.99;97796.31;5022401;28;20515;-77
2022/05/22 03:09:42;;;;;;;7.15;3.05;;;;;;;10.60;48.66;97790.38;5016104;28;20041;-77
2022/05/22 03:12:14;;;;;;;7.28;3.17;;;;;;;10.62;47.68;97797.19;5033718;28;20082;-76
2022/05/22 03:14:43;;;;;;;7.20;3.08;;;;;;;10.59;47.55;97796.47;5016096;28;20041;-77
2022/05/22 03:17:09;;;;;;;8.73;3.53;;;;;;;10.62;47.64;97794.59;5016309;28;20076;-77
2022/05/22 03:19:42;;;;;;;8.52;3.95;;;;;;;10.62;47.50;97797.19;5016994;28;20044;-77
2022/05/22 03:22:08;;;;;;;;;;;;;;;10.65;48.39;97796.25;5033088;28;20037;-77
2022/05/22 03:24:35;;;;;;;6.57;3.60;;;;;;;10.63;48.29;97795.47;5037550;28;19914;-77
2022/05/22 03:27:03;;;;;;;5.10;3.33;;;;;;;10.63;48.26;97793.72;5044410;28;20076;-78
2022/05/22 03:29:29;;;;;;;8.35;3.40;;;;;;;10.58;47.87;97790.44;4999805;28;20124;-78
2022/05/22 03:31:56;;;;;;;5.95;3.63;;;;;;;10.50;47.64;97794.19;5016153;28;20127;-78
2022/05/22 03:34:22;;;;;;;6.13;3.53;;;;;;;10.52;47.89;97787.19;5031910;28;20030;-78
2022/05/22 03:36:52;;;;;;;8.85;3.13;;;;;;;10.47;48.00;97784.75;4986790;28;20412;-75
2022/05/22 03:39:18;;;;;;;;;;;;;;;10.73;48.37;97798.59;5016010;28;20065;-79
2022/05/22 03:41:44;;;;;;;7.63;3.47;;;;;;;10.76;48.34;97799.31;5032122;28;20541;-77
2022/05/22 03:44:11;;;;;;;6.63;3.60;;;;;;;10.79;48.19;97801.81;5031851;28;20497;-77
2022/05/22 03:46:41;;;;;;;10.65;3.90;;;;;;;10.78;46.94;97800.13;5016069;28;20033;-77
2022/05/22 03:49:07;;;;;;;;;;;;;;;10.83;46.85;97799.97;5015411;28;20563;-77
2022/05/22 03:51:37;;;;;;;10.18;4.30;;;;;;;10.77;47.51;97792.41;5032063;28;19913;-77
2022/05/22 03:54:04;;;;;;;6.63;3.58;;;;;;;10.78;48.62;97797.53;5015608;28;20075;-79
2022/05/22 03:56:37;;;;;;;5.63;3.35;;;;;;;10.85;47.52;97792.97;5016098;28;20037;-76
2022/05/22 03:59:04;;;;;;;7.93;3.35;;;;;;;10.88;47.85;97785.91;5015453;28;20037;-77
2022/05/22 04:01:29;;;;;;;;;;;;;;;10.98;46.82;97793.38;5015534;28;20406;-76
2022/05/22 04:03:59;;;;;;;6.82;3.33;;;;;;;10.93;47.81;97785.75;5031693;28;19917;-76
2022/05/22 04:06:25;;;;;;;5.55;3.35;;;;;;;11.04;46.30;97786.25;5015005;28;20038;-77
2022/05/22 04:08:52;;;;;;;6.97;3.25;;;;;;;11.05;47.01;97789.69;5015213;28;20044;-77
2022/05/22 04:11:24;;;;;;;5.78;3.67;;;;;;;11.04;47.08;97796.63;5000684;28;20139;-78
2022/05/22 04:13:50;;;;;;;;;;;;;;;11.13;46.46;97792.81;5031998;28;20057;-77
2022/05/22 04:16:16;;;;;;;11.52;5.57;;;;;;;11.03;47.25;97784.53;5014902;28;19913;-77
2022/05/22 04:18:42;;;;;;;7.35;3.15;;;;;;;11.04;47.30;97786.25;5014071;28;20037;-77
2022/05/22 04:21:08;;;;;;;;;;;;;;;11.17;46.57;97781.44;4998574;28;20405;-78
2022/05/22 04:26:39;;;;;;;5.80;2.83;;;;;;;11.18;47.02;97786.59;5017833;28;20095;-77
2022/05/22 04:29:08;;;;;;;5.68;3.05;;;;;;;11.27;46.39;97781.94;4997314;28;20057;-78
2022/05/22 04:31:33;;;;;;;;;;;;;;;11.52;46.14;97774.09;5019703;28;20390;-77
2022/05/22 04:34:25;;;;;;;9.52;3.05;;;;;;;11.65;45.85;97778.75;5030979;28;20392;-77
2022/05/22 04:37:03;;;;;;;4.47;2.50;;;;;;;11.77;45.46;97777.41;5016516;28;20037;-77
2022/05/22 04:39:49;;;;;;;9.30;3.00;;;;;;;11.88;45.06;97779.66;5030683;28;20049;-75
2022/05/22 04:42:17;;;;;;;5.55;2.53;;;;;;;11.94;44.10;97780.25;5014592;28;20128;-75
2022/05/22 04:44:43;;;;;;;7.38;4.53;;;;;;;11.85;44.03;97780.59;5031180;28;20033;-77
2022/05/22 04:47:28;;;;;;;4.47;2.78;;;;;;;11.84;44.09;97783.28;5031818;28;20477;-78
2022/05/22 04:50:17;;;;;;;4.90;2.80;;;;;;;11.85;44.15;97784.97;5018097;28;20041;-76
2022/05/22 04:53:01;;;;;;;6.90;2.72;;;;;;;11.90;44.64;97788.22;5032244;28;20044;-77
2022/05/22 04:55:31;;;;;;;7.03;3.00;;;;;;;11.98;44.61;97786.16;5032425;28;20087;-77
2022/05/22 04:58:02;;;;;;;5.93;2.88;;;;;;;11.99;43.88;97787.84;5031111;28;20033;-77
2022/05/22 05:00:28;;;;;;;;;;;;;;;12.07;43.31;97788.41;5015097;28;20048;-76
2022/05/22 05:03:05;;;;;;;4.43;2.30;;;;;;;12.04;42.83;97785.91;5031047;28;19960;-77
2022/05/22 05:05:31;;;;;;;6.25;2.47;;;;;;;12.02;43.01;97790.34;4996346;28;20570;-78
2022/05/22 05:07:57;;;;;;;;;;;;;;;12.05;42.92;97792.81;5012169;28;20034;-77
2022/05/22 05:10:46;;;;;;;5.28;2.65;;;;;;;11.95;42.85;97788.88;5017269;28;20292;-78
2022/05/22 05:13:38;;;;;;;4.95;2.83;;;;;;;11.84;43.15;97794.50;5005840;28;20060;-78
2022/05/22 05:16:08;;;;;;;8.48;3.28;;;;;;;11.84;43.19;97793.66;5013901;28;20037;-77
2022/05/22 05:18:39;;;;;;;6.35;2.80;;;;;;;11.82;43.21;97792.81;5030672;28;20520;-77
2022/05/22 05:21:12;;;;;;;6.97;2.92;;;;;;;11.84;43.47;97796.25;5011367;28;20042;-77
2022/05/22 05:23:38;;;;;;;7.18;2.80;;;;;;;11.85;43.23;97793.59;5007791;28;20439;-77
2022/05/22 05:26:13;;;;;;;4.07;2.47;;;;;;;11.92;43.24;97789.03;5011514;28;20060;-76
2022/05/22 05:28:39;;;;;;;4.88;2.63;;;;;;;11.94;42.79;97788.03;5025764;28;20052;-78
2022/05/22 05:31:07;;;;;;;7.65;3.17;;;;;;;11.88;42.31;97788.28;5033687;28;20488;-77
2022/05/22 05:33:34;;;;;;;6.55;2.88;;;;;;;11.97;42.86;97794.88;5035389;28;20035;-78
2022/05/22 05:36:26;;;;;;;4.05;2.55;;;;;;;12.00;42.91;97789.53;5032425;28;20401;-77
2022/05/22 05:39:07;;;;;;;5.07;2.70;;;;;;;12.03;42.72;97794.63;5017816;28;20049;-77
2022/05/22 05:42:02;;;;;;;7.70;3.00;;;;;;;12.05;42.91;97790.22;5010557;28;20497;-78
2022/05/22 05:44:35;;;;;;;5.28;2.78;;;;;;;12.04;42.95;97795.47;5032535;28;20071;-78
2022/05/22 05:47:33;;;;;;;7.93;2.95;;;;;;;12.07;43.31;97796.19;5013070;28;20049;-78
2022/05/22 05:50:21;;;;;;;6.90;3.00;;;;;;;12.14;42.96;97792.47;5034174;28;20037;-77
2022/05/22 05:53:05;;;;;;;12.88;2.95;;;;;;;12.23;42.84;97790.38;5007193;28;20124;-78
2022/05/22 05:55:47;;;;;;;5.90;2.50;;;;;;;12.27;42.73;97786.75;5036100;28;20053;-77
2022/05/22 05:58:45;;;;;;;7.07;3.00;;;;;;;12.43;42.48;97793.03;5035320;28;20049;-78
2022/05/22 06:01:33;;;;;;;6.47;2.50;;;;;;;12.38;42.75;97792.38;5016466;28;20053;-77
2022/05/22 06:04:00;;;;;;;5.38;2.30;;;;;;;12.35;42.66;97797.69;5018132;28;20577;-76
2022/05/22 06:06:26;;;;;;;9.85;4.63;;;;;;;12.36;42.39;97786.38;5018244;28;20474;-82
2022/05/22 06:08:56;;;;;;;5.32;3.38;;;;;;;12.46;41.69;97805.88;5015036;28;20136;-77
2022/05/22 06:11:32;;;;;;;8.40;2.93;;;;;;;12.50;41.74;97804.00;4992800;28;20037;-78
2022/05/22 06:14:04;;;;;;;7.07;2.70;;;;;;;12.49;41.70;97797.97;5018870;28;20375;-78
2022/05/22 06:16:31;;;;;;;;;;;;;;;12.60;41.63;97798.38;5018762;28;20041;-77
2022/05/22 06:19:01;;;;;;;10.15;2.53;;;;;;;12.69;41.41;97794.50;5036717;28;19920;-77
2022/05/22 06:21:26;;;;;;;;;;;;;;;12.88;41.62;97805.84;5018445;28;20038;-77
2022/05/22 06:23:53;;;;;;;7.45;2.33;;;;;;;12.96;41.34;97788.13;5017007;28;19913;-79
2022/05/22 06:26:38;;;;;;;6.57;2.45;;;;;;;13.13;40.51;97791.75;5000916;28;20439;-77
2022/05/22 06:29:18;;;;;;;7.85;3.25;;;;;;;13.26;39.65;97792.09;5020086;28;20037;-78
2022/05/22 06:32:03;;;;;;;7.47;2.83;;;;;;;13.36;39.22;97785.56;5035092;28;20056;-77
2022/05/22 06:34:34;;;;;;;5.45;2.40;;;;;;;13.55;39.12;97789.00;4998441;28;20049;-77
2022/05/22 06:37:29;;;;;;;5.65;2.50;;;;;;;13.71;38.54;97790.00;4982056;28;20058;-77
2022/05/22 06:40:21;;;;;;;9.35;2.92;;;;;;;13.96;38.34;97789.66;5018146;28;20053;-79
2022/05/22 06:43:10;;;;;;;6.55;2.53;;;;;;;14.18;37.30;97788.66;4991825;28;20050;-78
2022/05/22 06:45:47;;;;;;;7.05;2.47;;;;;;;14.39;37.29;97792.81;5021470;28;20511;-79
2022/05/22 06:48:13;;;;;;;5.28;2.40;;;;;;;14.62;37.58;97793.47;5017690;28;20045;-77
2022/05/22 06:50:57;;;;;;;5.18;2.40;;;;;;;14.84;36.72;97786.22;5023886;28;20499;-80
2022/05/22 06:53:37;;;;;;;6.57;2.55;;;;;;;15.12;36.12;97790.88;5034929;28;20107;-79
2022/05/22 06:56:21;;;;;;;5.20;2.38;;;;;;;15.32;35.45;97791.59;5034405;28;20057;-78
2022/05/22 06:59:19;;;;;;;5.10;2.28;;;;;;;15.53;35.54;97800.88;5021213;28;20049;-78
2022/05/22 07:02:04;;;;;;;6.22;2.10;;;;;;;15.61;33.87;97793.47;5032255;28;20100;-78
2022/05/22 07:04:59;;;;;;;4.25;1.90;;;;;;;15.76;33.74;97791.88;5028916;28;20041;-77
2022/05/22 07:07:43;;;;;;;6.80;2.15;;;;;;;16.01;33.14;97797.41;5016561;28;20041;-79
2022/05/22 07:13:31;;;;;;;3.05;2.10;;;;;;;16.20;32.21;97786.75;5033543;28;20045;-79
2022/05/22 07:16:17;;;;;;;7.65;3.00;;;;;;;16.39;32.43;97785.69;5019831;28;20033;-80
2022/05/22 07:18:50;;;;;;;4.45;1.98;;;;;;;16.62;31.88;97795.66;5033250;28;20045;-78
2022/05/22 07:21:27;;;;;;;4.30;2.40;;;;;;;16.67;30.77;97791.00;5032861;28;20136;-81
2022/05/22 07:24:02;;;;;;;2.80;1.80;;;;;;;16.84;30.60;97791.84;5033373;28;20045;-79
2022/05/22 07:26:45;;;;;;;3.22;1.85;;;;;;;16.90;31.06;97789.69;5029656;28;20041;-78
2022/05/22 07:29:37;;;;;;;6.70;1.92;;;;;;;16.99;31.09;97794.38;5022443;28;20041;-78
2022/05/22 07:32:22;;;;;;;4.53;1.90;;;;;;;17.21;30.35;97796.53;5016657;28;20095;-78
2022/05/22 07:35:08;;;;;;;7.63;2.10;;;;;;;17.34;30.28;97793.19;5018186;28;20424;-80
2022/05/22 07:38:11;;;;;;;3.80;1.73;;;;;;;17.64;30.27;97780.81;5032963;28;20041;-79
2022/05/22 07:40:56;;;;;;;4.82;1.85;;;;;;;17.86;29.89;97788.16;5032841;28;20072;-79
2022/05/22 07:43:47;;;;;;;5.60;2.22;;;;;;;17.95;29.20;97781.50;5013059;28;20054;-79
2022/05/22 07:46:44;;;;;;;3.88;1.80;;;;;;;18.03;28.88;97776.63;5019034;28;20037;-81
2022/05/22 07:52:53;;;;;;;3.60;1.70;;;;;;;18.51;27.79;97785.72;4964115;28;20035;-80
2022/05/22 07:55:45;;;;;;;3.70;1.63;;;;;;;18.76;27.76;97789.34;5001410;28;20100;-79
2022/05/22 07:58:29;;;;;;;5.63;1.92;;;;;;;18.72;27.69;97774.72;5033119;28;20052;-79
2022/05/22 08:01:01;;;;;;;6.60;2.15;;;;;;;18.84;27.71;97786.22;4998157;28;20045;-77
2022/05/22 08:03:45;;;;;;;3.97;1.70;;;;;;;18.99;26.88;97779.91;5033344;28;20068;-80
2022/05/22 08:06:29;;;;;;;4.15;1.90;;;;;;;19.20;26.94;97777.59;4994102;28;20049;-77
2022/05/22 08:08:57;;;;;;;13.00;9.13;;;;;;;19.47;26.79;97780.06;5015811;28;20267;-78
2022/05/22 08:11:30;;;;;;;4.60;2.05;;;;;;;19.48;26.57;97787.03;5031978;28;20033;-79
2022/05/22 08:14:04;;;;;;;3.88;1.45;;;;;;;19.62;26.21;97781.69;5016122;28;20037;-77
2022/05/22 08:16:40;;;;;;;5.15;1.80;;;;;;;19.82;25.98;97780.25;5031775;28;20044;-79
2022/05/22 08:19:18;;;;;;;6.78;1.70;;;;;;;19.91;25.56;97790.13;5031302;28;20059;-78
2022/05/22 08:22:10;;;;;;;4.65;1.80;;;;;;;20.11;25.39;97785.19;5018555;28;20041;-77
2022/05/22 08:25:09;;;;;;;4.13;1.85;;;;;;;20.48;25.17;97784.22;5020946;28;20124;-79
2022/05/22 08:27:39;;;;;;;6.25;1.60;;;;;;;20.75;24.50;97791.81;5016103;28;20048;-78
2022/05/22 08:30:05;;;;;;;2.70;1.40;;;;;;;20.87;24.29;97781.34;4995865;28;20505;-78
2022/05/22 08:32:39;;;;;;;17.38;13.65;;;;;;;20.89;24.22;97777.63;5015379;28;20037;-79
2022/05/22 08:35:06;;;;;;;7.15;3.60;;;;;;;21.14;25.41;97779.22;5031663;28;20075;-78
2022/05/22 08:37:33;;;;;;;4.95;1.83;;;;;;;21.43;24.22;97778.78;5032533;28;20045;-79
2022/05/22 08:40:01;;;;;;;2.85;1.67;;;;;;;21.55;23.44;97778.66;5011773;28;20483;-78
2022/05/22 08:42:42;;;;;;;6.00;1.58;;;;;;;21.52;23.19;97780.69;5037463;28;20132;-79
2022/05/22 08:45:18;;;;;;;2.75;1.70;;;;;;;21.45;22.84;97793.53;5014871;28;20513;-81
2022/05/22 08:48:08;;;;;;;5.10;1.88;;;;;;;21.68;23.03;97781.19;5016049;28;20496;-78
2022/05/22 08:50:35;;;;;;;3.80;1.95;;;;;;;21.86;23.09;97783.31;5031714;28;20076;-79
2022/05/22 08:53:15;;;;;;;3.97;1.80;;;;;;;21.90;23.52;97775.03;5031629;28;20436;-78
2022/05/22 08:59:08;;;;;;;4.22;1.85;;;;;;;22.41;23.79;97773.59;4988464;28;20148;-84
2022/05/22 09:01:40;;;;;;;4.82;2.08;;;;;;;22.46;23.86;97774.88;5032128;28;20045;-78
2022/05/22 09:04:35;;;;;;;2.75;1.73;;;;;;;22.78;24.19;97766.06;5032185;28;20041;-79
2022/05/22 09:07:20;;;;;;;5.15;1.92;;;;;;;23.17;22.21;97788.31;5032410;28;20041;-78
2022/05/22 09:10:02;;;;;;;4.82;1.80;;;;;;;23.23;21.73;97777.22;5032675;28;20048;-78
2022/05/22 09:12:43;;;;;;;4.85;2.85;;;;;;;23.28;21.76;97782.97;5032317;28;20039;-79
2022/05/22 09:15:19;;;;;;;3.65;2.00;;;;;;;23.68;22.00;97770.75;5030420;28;20500;-78
2022/05/22 09:18:06;;;;;;;3.97;1.92;;;;;;;24.13;21.35;97781.72;5031214;28;20036;-80
2022/05/22 09:20:55;;;;;;;5.10;1.75;;;;;;;24.53;20.89;97780.81;5032378;28;20045;-79
2022/05/22 09:23:42;;;;;;;3.20;1.60;;;;;;;24.44;19.97;97776.34;5030970;28;20038;-79
2022/05/22 09:26:18;;;;;;;7.32;2.00;;;;;;;23.82;21.05;97773.88;5027535;28;20054;-78
2022/05/22 09:29:16;;;;;;;5.15;1.85;;;;;;;23.40;21.58;97780.22;5024537;28;20497;-79
2022/05/22 09:32:00;;;;;;;3.40;1.90;;;;;;;22.96;22.24;97777.78;5010895;28;20090;-79
2022/05/22 09:35:01;;;;;;;5.13;1.90;;;;;;;22.57;22.17;97789.84;5031806;28;20064;-78
2022/05/22 09:37:48;;;;;;;3.08;1.70;;;;;;;22.28;23.19;97789.59;5013228;28;20137;-80
2022/05/22 09:40:19;;;;;;;5.32;2.10;;;;;;;22.00;22.97;97786.53;5032136;28;20045;-79
2022/05/22 09:43:11;;;;;;;8.10;1.83;;;;;;;21.98;23.44;97791.06;5030830;28;20048;-78
2022/05/22 09:45:55;;;;;;;3.83;1.85;;;;;;;21.69;23.22;97793.41;5011500;28;20107;-79
2022/05/22 09:48:51;;;;;;;5.63;1.83;;;;;;;21.02;23.46;97795.97;5025704;28;20052;-79
2022/05/22 09:51:39;;;;;;;4.05;1.83;;;;;;;21.27;23.71;97785.22;5026297;28;20572;-79
2022/05/22 09:54:17;;;;;;;6.97;1.77;;;;;;;22.66;22.77;97793.53;5034768;28;20039;-79
2022/05/22 09:56:51;;;;;;;5.53;1.77;;;;;;;23.68;20.75;97797.22;5031924;28;20045;-78
2022/05/22 09:59:44;;;;;;;7.20;1.92;;;;;;;24.80;19.79;97780.94;5031720;28;20512;-79
2022/05/22 10:02:27;;;;;;;5.63;1.73;;;;;;;25.68;19.38;97786.84;5031479;28;20068;-79
2022/05/22 10:05:07;;;;;;;8.45;2.03;;;;;;;25.22;19.19;97799.16;5014474;28;20175;-80
2022/05/22 10:07:40;;;;;;;7.80;2.00;;;;;;;24.41;20.75;97797.81;5031961;28;20037;-79
2022/05/22 10:10:35;;;;;;;4.65;1.85;;;;;;;23.69;20.53;97801.56;5031762;28;20238;-79
2022/05/22 10:13:18;;;;;;;6.32;2.10;;;;;;;23.83;21.48;97796.72;5013710;28;20046;-79
2022/05/22 10:16:06;;;;;;;4.63;1.90;;;;;;;24.46;20.27;97793.75;5026291;28;20045;-79
2022/05/22 10:18:50;;;;;;;6.90;1.90;;;;;;;25.05;19.97;97805.16;5002207;28;20041;-79
2022/05/22 10:21:36;;;;;;;7.47;2.30;;;;;;;24.53;19.62;97802.00;5033896;28;20417;-79
2022/05/22 10:24:15;;;;;;;3.33;1.90;;;;;;;23.53;19.97;97809.94;5034562;28;20463;-79
2022/05/22 10:27:22;;;;;;;2.65;1.60;;;;;;;23.18;20.87;97807.66;5015155;28;20042;-79
2022/05/22 10:29:57;;;;;;;4.63;2.88;;;;;;;22.53;21.49;97806.91;5026317;28;20470;-80
2022/05/22 10:32:28;;;;;;;4.25;2.00;;;;;;;22.12;22.22;97816.41;5018580;28;20036;-81
2022/05/22 10:34:56;;;;;;;6.22;2.25;;;;;;;22.49;21.87;97794.91;5034769;28;20052;-80
2022/05/22 10:37:38;;;;;;;5.78;1.77;;;;;;;23.63;22.88;97797.56;5019930;28;20049;-81
2022/05/22 10:40:06;;;;;;;8.63;3.72;;;;;;;24.78;19.98;97804.09;5015453;28;20053;-82
2022/05/22 10:42:45;;;;;;;3.83;2.00;;;;;;;25.56;20.51;97811.91;5011302;28;20044;-79
2022/05/22 10:45:19;;;;;;;3.88;2.13;;;;;;;26.21;19.28;97793.28;5033012;28;20092;-80
2022/05/22 10:47:45;;;;;;;2.95;1.60;;;;;;;26.78;19.12;97781.38;5015098;28;20036;-80
2022/05/22 10:50:32;;;;;;;3.42;1.65;;;;;;;27.22;19.74;97799.19;5020330;28;20058;-81
2022/05/22 10:52:58;;;;;;;10.02;1.77;;;;;;;27.03;17.46;97789.53;5030622;28;20045;-82
2022/05/22 10:55:45;;;;;;;5.13;1.70;;;;;;;26.58;19.46;97799.34;5048893;28;20048;-81
2022/05/22 10:58:34;;;;;;;5.10;1.90;;;;;;;25.99;19.64;97813.97;5032000;28;20540;-82
2022/05/22 11:01:03;;;;;;;3.58;1.63;;;;;;;25.65;19.15;97805.72;5014866;28;20033;-79
2022/05/22 11:03:31;;;;;;;6.35;1.90;;;;;;;24.95;19.61;97805.19;5035235;28;20039;-79
2022/05/22 11:05:59;;;;;;;3.97;1.70;;;;;;;24.73;20.53;97824.06;4985061;28;20141;-80
2022/05/22 11:08:28;;;;;;;4.22;1.83;;;;;;;24.17;19.91;97820.22;5010616;28;20033;-80
2022/05/22 11:10:54;;;;;;;5.10;1.90;;;;;;;24.02;20.44;97819.75;5024442;28;20037;-81
2022/05/22 11:13:23;;;;;;;4.50;1.90;;;;;;;24.43;20.03;97814.44;5016034;28;20446;-80
2022/05/22 11:15:51;;;;;;;4.05;1.52;;;;;;;25.01;20.04;97819.69;5046040;28;20042;-80
2022/05/22 11:18:22;;;;;;;7.03;1.75;;;;;;;25.74;20.01;97806.66;5049506;28;20407;-81
2022/05/22 11:21:35;;;;;;;5.60;1.65;;;;;;;26.72;18.97;97811.25;5048878;28;20040;-80
2022/05/22 11:24:05;;;;;;;5.22;1.50;;;;;;;27.59;17.61;97813.06;5013145;28;20516;-82
2022/05/22 11:26:42;;;;;;;3.05;1.80;;;;;;;28.10;17.10;97807.78;5021104;28;20135;-80
2022/05/22 11:29:36;;;;;;;5.32;1.80;;;;;;;28.46;17.24;97815.56;5049324;28;20065;-83
2022/05/22 11:32:29;;;;;;;3.45;1.98;;;;;;;28.99;16.71;97823.13;5039440;28;20491;-80
2022/05/22 11:35:02;;;;;;;8.38;2.88;;;;;;;29.37;15.96;97826.94;5053897;28;20178;-82
2022/05/22 11:37:55;;;;;;;6.82;3.15;;;;;;;29.37;15.94;97808.25;5055224;28;20045;-85
2022/05/22 11:40:39;;;;;;;4.60;2.30;;;;;;;28.85;15.75;97829.94;5006827;28;20049;-80
2022/05/22 11:43:05;;;;;;;5.55;2.47;;;;;;;28.09;16.49;97830.13;5036455;28;20132;-81
2022/05/22 11:45:53;;;;;;;6.40;1.88;;;;;;;27.34;16.41;97838.69;5035188;28;20079;-80
2022/05/22 11:48:32;;;;;;;3.67;1.70;;;;;;;26.29;16.37;97830.56;5036478;28;20041;-80
2022/05/22 11:51:20;;;;;;;4.68;2.03;;;;;;;26.63;17.76;97836.13;5015534;28;20483;-80
2022/05/22 11:54:14;;;;;;;2.88;1.70;;;;;;;27.55;17.42;97816.19;5033699;28;20071;-79
2022/05/22 11:57:03;;;;;;;5.18;2.08;;;;;;;27.77;16.24;97826.31;5017670;28;20046;-80
2022/05/22 11:59:46;;;;;;;5.57;2.08;;;;;;;27.98;16.00;97833.06;5016252;28;20093;-81
2022/05/22 12:02:32;;;;;;;3.75;1.83;;;;;;;28.47;16.52;97838.56;5045151;28;20056;-79
2022/05/22 12:05:11;;;;;;;2.75;1.52;;;;;;;28.38;16.48;97835.06;5029305;28;20037;-82
2022/05/22 12:08:02;;;;;;;17.92;13.90;;;;;;;27.40;16.23;97842.56;5030013;28;20567;-80
2022/05/22 12:10:39;;;;;;;5.40;2.33;;;;;;;26.58;16.35;97838.41;5017921;28;20045;-81
2022/05/22 12:13:31;;;;;;;5.65;1.80;;;;;;;26.73;16.78;97839.53;5034144;28;20056;-81
2022/05/22 12:16:04;;;;;;;4.18;1.73;;;;;;;27.86;15.55;97829.88;5039243;28;20531;-80
2022/05/22 12:18:53;;;;;;;3.88;1.88;;;;;;;28.25;15.43;97814.16;5034848;28;20044;-81
2022/05/22 12:21:50;;;;;;;6.78;1.70;;;;;;;28.75;15.45;97847.13;5041237;28;20071;-79
2022/05/22 12:24:42;;;;;;;3.58;1.70;;;;;;;28.48;15.80;97833.06;5031775;28;20036;-79
2022/05/22 12:27:27;;;;;;;4.75;2.08;;;;;;;27.52;15.78;97845.78;5047170;28;20048;-79
2022/05/22 12:29:59;;;;;;;5.07;1.80;;;;;;;26.84;16.79;97849.91;5031301;28;20438;-79
2022/05/22 12:32:26;;;;;;;3.45;1.83;;;;;;;27.32;16.30;97846.00;5051108;28;20522;-80
2022/05/22 12:34:53;;;;;;;3.38;1.42;;;;;;;27.60;15.51;97828.03;5017565;28;20479;-81
2022/05/22 12:37:35;;;;;;;3.25;1.90;;;;;;;28.01;15.87;97849.56;5032440;28;20069;-80